sensor_id;sensor_type;location;lat;lon;timestamp;temperature;humidity
64939;DHT22;51453;47.738;7.420;2022-08-01T00:00:27;19.10;99.90
64939;DHT22;51453;47.738;7.420;2022-08-01T00:02:52;19.10;99.90
64939;DHT22;51453;47.738;7.420;2022-08-01T00:05:18;19.10;99.90
64939;DHT22;51453;47.738;7.420;2022-08-01T00:07:44;19.10;99.90
64939;DHT22;51453;47.738;7.420;2022-08-01T00:10:12;19.10;99.90
64939;DHT22;51453;47.738;7.420;2022-08-01T00:12:39;19.00;99.90
64939;DHT22;51453;47.738;7.420;2022-08-01T00:15:06;19.00;99.90
64939;DHT22;51453;47.738;7.420;2022-08-01T00:17:32;18.90;99.90
64939;DHT22;51453;47.738;7.420;2022-08-01T00:19:58;18.90;99.90
64939;DHT22;51453;47.738;7.420;2022-08-01T00:22:23;18.80;99.90
64939;DHT22;51453;47.738;7.420;2022-08-01T00:24:49;18.70;99.90
64939;DHT22;51453;47.738;7.420;2022-08-01T00:27:15;18.60;99.90
64939;DHT22;51453;47.738;7.420;2022-08-01T00:29:41;18.60;99.90
64939;DHT22;51453;47.738;7.420;2022-08-01T00:32:07;18.60;99.90
64939;DHT22;51453;47.738;7.420;2022-08-01T00:34:33;18.50;99.90
64939;DHT22;51453;47.738;7.420;2022-08-01T00:36:58;18.50;99.90
64939;DHT22;51453;47.738;7.420;2022-08-01T00:39:24;18.40;99.90
64939;DHT22;51453;47.738;7.420;2022-08-01T00:41:50;18.40;99.90
64939;DHT22;51453;47.738;7.420;2022-08-01T00:44:16;18.30;99.90
64939;DHT22;51453;47.738;7.420;2022-08-01T00:46:42;18.30;99.90
64939;DHT22;51453;47.738;7.420;2022-08-01T00:49:08;18.20;99.90
64939;DHT22;51453;47.738;7.420;2022-08-01T00:51:33;18.10;99.90
64939;DHT22;51453;47.738;7.420;2022-08-01T00:54:00;18.00;99.90
64939;DHT22;51453;47.738;7.420;2022-08-01T00:56:27;18.00;99.90
64939;DHT22;51453;47.738;7.420;2022-08-01T00:58:54;18.00;99.90
64939;DHT22;51453;47.738;7.420;2022-08-01T01:01:21;18.00;99.90
64939;DHT22;51453;47.738;7.420;2022-08-01T01:03:51;18.00;99.90
64939;DHT22;51453;47.738;7.420;2022-08-01T01:06:41;18.00;99.90
64939;DHT22;51453;47.738;7.420;2022-08-01T01:09:15;17.90;99.90
64939;DHT22;51453;47.738;7.420;2022-08-01T01:12:02;17.90;99.90
64939;DHT22;51453;47.738;7.420;2022-08-01T01:14:38;17.80;99.90
64939;DHT22;51453;47.738;7.420;2022-08-01T01:17:11;17.80;99.90
64939;DHT22;51453;47.738;7.420;2022-08-01T01:19:42;17.80;99.90
64939;DHT22;51453;47.738;7.420;2022-08-01T01:30:50;17.70;99.90
64939;DHT22;51453;47.738;7.420;2022-08-01T01:33:17;17.60;99.90
64939;DHT22;51453;47.738;7.420;2022-08-01T01:35:56;17.60;99.90
64939;DHT22;51453;47.738;7.420;2022-08-01T01:38:26;17.60;99.90
64939;DHT22;51453;47.738;7.420;2022-08-01T01:40:53;17.50;99.90
64939;DHT22;51453;47.738;7.420;2022-08-01T01:43:21;17.50;99.90
64939;DHT22;51453;47.738;7.420;2022-08-01T01:45:49;17.50;99.90
64939;DHT22;51453;47.738;7.420;2022-08-01T01:48:19;17.50;99.90
64939;DHT22;51453;47.738;7.420;2022-08-01T01:50:47;17.50;99.90
64939;DHT22;51453;47.738;7.420;2022-08-01T01:53:16;17.60;99.90
64939;DHT22;51453;47.738;7.420;2022-08-01T01:55:44;17.60;99.90
64939;DHT22;51453;47.738;7.420;2022-08-01T01:58:13;17.50;99.90
64939;DHT22;51453;47.738;7.420;2022-08-01T02:00:42;17.50;99.90
64939;DHT22;51453;47.738;7.420;2022-08-01T02:03:10;17.50;99.90
64939;DHT22;51453;47.738;7.420;2022-08-01T02:05:37;17.50;99.90
64939;DHT22;51453;47.738;7.420;2022-08-01T02:08:04;17.50;99.90
64939;DHT22;51453;47.738;7.420;2022-08-01T02:10:32;17.40;99.90
64939;DHT22;51453;47.738;7.420;2022-08-01T02:12:59;17.40;99.90
64939;DHT22;51453;47.738;7.420;2022-08-01T02:15:29;17.30;99.90
64939;DHT22;51453;47.738;7.420;2022-08-01T02:17:56;17.30;99.90
64939;DHT22;51453;47.738;7.420;2022-08-01T02:20:22;17.20;99.90
64939;DHT22;51453;47.738;7.420;2022-08-01T02:22:55;17.20;99.90
64939;DHT22;51453;47.738;7.420;2022-08-01T02:25:27;17.10;99.90
64939;DHT22;51453;47.738;7.420;2022-08-01T02:28:41;17.00;99.90
64939;DHT22;51453;47.738;7.420;2022-08-01T02:31:06;17.00;99.90
64939;DHT22;51453;47.738;7.420;2022-08-01T02:33:37;16.90;99.90
64939;DHT22;51453;47.738;7.420;2022-08-01T02:36:03;16.90;99.90
64939;DHT22;51453;47.738;7.420;2022-08-01T02:38:33;16.90;99.90
64939;DHT22;51453;47.738;7.420;2022-08-01T02:41:05;16.90;99.90
64939;DHT22;51453;47.738;7.420;2022-08-01T02:43:36;16.90;99.90
64939;DHT22;51453;47.738;7.420;2022-08-01T02:46:04;16.80;99.90
64939;DHT22;51453;47.738;7.420;2022-08-01T02:48:34;16.80;99.90
64939;DHT22;51453;47.738;7.420;2022-08-01T02:51:01;16.80;99.90
64939;DHT22;51453;47.738;7.420;2022-08-01T02:53:32;16.80;99.90
64939;DHT22;51453;47.738;7.420;2022-08-01T02:56:03;16.70;99.90
64939;DHT22;51453;47.738;7.420;2022-08-01T02:58:30;16.60;99.90
64939;DHT22;51453;47.738;7.420;2022-08-01T03:00:57;16.50;99.90
64939;DHT22;51453;47.738;7.420;2022-08-01T03:03:23;16.40;99.90
64939;DHT22;51453;47.738;7.420;2022-08-01T03:05:50;16.40;99.90
64939;DHT22;51453;47.738;7.420;2022-08-01T03:08:16;16.30;99.90
64939;DHT22;51453;47.738;7.420;2022-08-01T03:10:45;16.30;99.90
64939;DHT22;51453;47.738;7.420;2022-08-01T03:13:13;16.30;99.90
64939;DHT22;51453;47.738;7.420;2022-08-01T03:15:42;16.30;99.90
64939;DHT22;51453;47.738;7.420;2022-08-01T03:18:09;16.30;99.90
64939;DHT22;51453;47.738;7.420;2022-08-01T03:20:37;16.30;99.90
64939;DHT22;51453;47.738;7.420;2022-08-01T03:23:07;16.30;99.90
64939;DHT22;51453;47.738;7.420;2022-08-01T03:25:36;16.30;99.90
64939;DHT22;51453;47.738;7.420;2022-08-01T03:28:04;16.30;99.90
64939;DHT22;51453;47.738;7.420;2022-08-01T03:30:32;16.20;99.90
64939;DHT22;51453;47.738;7.420;2022-08-01T03:32:59;16.30;99.90
64939;DHT22;51453;47.738;7.420;2022-08-01T03:35:33;16.20;99.90
64939;DHT22;51453;47.738;7.420;2022-08-01T03:38:00;16.20;99.90
64939;DHT22;51453;47.738;7.420;2022-08-01T03:40:43;16.20;99.90
64939;DHT22;51453;47.738;7.420;2022-08-01T03:45:53;16.00;99.90
64939;DHT22;51453;47.738;7.420;2022-08-01T03:48:24;16.00;99.90
64939;DHT22;51453;47.738;7.420;2022-08-01T03:50:53;16.00;99.90
64939;DHT22;51453;47.738;7.420;2022-08-01T03:53:25;16.00;99.90
64939;DHT22;51453;47.738;7.420;2022-08-01T03:55:53;16.00;99.90
64939;DHT22;51453;47.738;7.420;2022-08-01T03:58:20;15.90;99.90
64939;DHT22;51453;47.738;7.420;2022-08-01T04:00:47;16.00;99.90
64939;DHT22;51453;47.738;7.420;2022-08-01T04:03:13;15.90;99.90
64939;DHT22;51453;47.738;7.420;2022-08-01T04:05:42;15.90;99.90
64939;DHT22;51453;47.738;7.420;2022-08-01T04:08:08;15.90;99.90
64939;DHT22;51453;47.738;7.420;2022-08-01T04:10:34;15.90;99.90
64939;DHT22;51453;47.738;7.420;2022-08-01T04:13:00;15.90;99.90
64939;DHT22;51453;47.738;7.420;2022-08-01T04:15:27;16.00;99.90
64939;DHT22;51453;47.738;7.420;2022-08-01T04:17:52;16.00;99.90
64939;DHT22;51453;47.738;7.420;2022-08-01T04:20:19;16.00;99.90
64939;DHT22;51453;47.738;7.420;2022-08-01T04:22:47;15.90;99.90
64939;DHT22;51453;47.738;7.420;2022-08-01T04:25:17;16.00;99.90
64939;DHT22;51453;47.738;7.420;2022-08-01T04:27:46;15.90;99.90
64939;DHT22;51453;47.738;7.420;2022-08-01T04:30:14;15.90;99.90
64939;DHT22;51453;47.738;7.420;2022-08-01T04:32:43;15.90;99.90
64939;DHT22;51453;47.738;7.420;2022-08-01T04:35:12;15.90;99.90
64939;DHT22;51453;47.738;7.420;2022-08-01T04:37:39;16.00;99.90
64939;DHT22;51453;47.738;7.420;2022-08-01T04:40:07;16.00;99.90
64939;DHT22;51453;47.738;7.420;2022-08-01T04:42:33;16.10;99.90
64939;DHT22;51453;47.738;7.420;2022-08-01T04:44:59;16.30;99.90
64939;DHT22;51453;47.738;7.420;2022-08-01T04:47:26;16.90;99.90
64939;DHT22;51453;47.738;7.420;2022-08-01T04:49:52;17.80;99.90
64939;DHT22;51453;47.738;7.420;2022-08-01T04:52:19;18.90;99.90
64939;DHT22;51453;47.738;7.420;2022-08-01T04:54:45;19.60;99.90
64939;DHT22;51453;47.738;7.420;2022-08-01T04:57:12;20.00;99.90
64939;DHT22;51453;47.738;7.420;2022-08-01T04:59:43;20.60;99.90
64939;DHT22;51453;47.738;7.420;2022-08-01T05:02:17;21.40;99.90
64939;DHT22;51453;47.738;7.420;2022-08-01T05:04:44;22.20;99.90
64939;DHT22;51453;47.738;7.420;2022-08-01T05:07:11;22.30;99.90
64939;DHT22;51453;47.738;7.420;2022-08-01T05:09:38;22.50;99.90
64939;DHT22;51453;47.738;7.420;2022-08-01T05:12:05;23.20;99.90
64939;DHT22;51453;47.738;7.420;2022-08-01T05:14:32;24.20;99.90
64939;DHT22;51453;47.738;7.420;2022-08-01T05:17:03;24.50;99.90
64939;DHT22;51453;47.738;7.420;2022-08-01T05:19:33;24.80;99.90
64939;DHT22;51453;47.738;7.420;2022-08-01T05:21:59;25.50;99.90
64939;DHT22;51453;47.738;7.420;2022-08-01T05:24:29;25.80;99.90
64939;DHT22;51453;47.738;7.420;2022-08-01T05:26:58;26.10;99.90
64939;DHT22;51453;47.738;7.420;2022-08-01T05:29:24;26.70;99.90
64939;DHT22;51453;47.738;7.420;2022-08-01T05:31:51;27.10;99.90
64939;DHT22;51453;47.738;7.420;2022-08-01T05:34:18;27.90;99.90
64939;DHT22;51453;47.738;7.420;2022-08-01T05:36:44;28.80;99.60
64939;DHT22;51453;47.738;7.420;2022-08-01T05:39:10;30.30;95.40
64939;DHT22;51453;47.738;7.420;2022-08-01T05:41:36;30.20;94.60
64939;DHT22;51453;47.738;7.420;2022-08-01T05:44:03;30.40;92.30
64939;DHT22;51453;47.738;7.420;2022-08-01T05:46:29;31.20;91.60
64939;DHT22;51453;47.738;7.420;2022-08-01T05:48:56;31.30;90.70
64939;DHT22;51453;47.738;7.420;2022-08-01T05:51:22;32.00;89.80
64939;DHT22;51453;47.738;7.420;2022-08-01T05:53:48;31.80;88.50
64939;DHT22;51453;47.738;7.420;2022-08-01T05:56:14;32.10;89.00
64939;DHT22;51453;47.738;7.420;2022-08-01T05:58:39;32.50;87.60
64939;DHT22;51453;47.738;7.420;2022-08-01T06:01:05;32.90;85.10
64939;DHT22;51453;47.738;7.420;2022-08-01T06:03:31;33.50;83.90
64939;DHT22;51453;47.738;7.420;2022-08-01T06:06:02;33.70;78.90
64939;DHT22;51453;47.738;7.420;2022-08-01T06:08:28;33.60;80.00
64939;DHT22;51453;47.738;7.420;2022-08-01T06:10:53;33.50;79.10
64939;DHT22;51453;47.738;7.420;2022-08-01T06:13:19;33.40;79.20
64939;DHT22;51453;47.738;7.420;2022-08-01T06:15:46;33.20;80.30
64939;DHT22;51453;47.738;7.420;2022-08-01T06:18:12;33.20;80.20
64939;DHT22;51453;47.738;7.420;2022-08-01T06:20:38;31.90;82.90
64939;DHT22;51453;47.738;7.420;2022-08-01T06:23:03;30.10;89.00
64939;DHT22;51453;47.738;7.420;2022-08-01T06:25:29;28.50;90.80
64939;DHT22;51453;47.738;7.420;2022-08-01T06:27:55;27.50;93.20
64939;DHT22;51453;47.738;7.420;2022-08-01T06:30:21;26.50;95.30
64939;DHT22;51453;47.738;7.420;2022-08-01T06:32:46;25.80;97.40
64939;DHT22;51453;47.738;7.420;2022-08-01T06:35:13;25.50;98.10
64939;DHT22;51453;47.738;7.420;2022-08-01T06:37:39;25.10;99.90
64939;DHT22;51453;47.738;7.420;2022-08-01T06:40:09;24.90;99.90
64939;DHT22;51453;47.738;7.420;2022-08-01T06:42:36;24.50;99.90
64939;DHT22;51453;47.738;7.420;2022-08-01T06:47:28;24.40;99.90
64939;DHT22;51453;47.738;7.420;2022-08-01T06:49:54;24.30;99.90
64939;DHT22;51453;47.738;7.420;2022-08-01T06:52:20;24.40;99.90
64939;DHT22;51453;47.738;7.420;2022-08-01T06:54:45;24.40;99.90
64939;DHT22;51453;47.738;7.420;2022-08-01T06:57:11;24.30;99.90
64939;DHT22;51453;47.738;7.420;2022-08-01T06:59:37;24.30;99.90
64939;DHT22;51453;47.738;7.420;2022-08-01T07:02:03;24.20;99.90
64939;DHT22;51453;47.738;7.420;2022-08-01T07:04:29;24.20;99.90
64939;DHT22;51453;47.738;7.420;2022-08-01T07:06:54;24.10;99.90
64939;DHT22;51453;47.738;7.420;2022-08-01T07:09:20;24.10;99.90
64939;DHT22;51453;47.738;7.420;2022-08-01T07:11:46;24.20;99.90
64939;DHT22;51453;47.738;7.420;2022-08-01T07:14:11;24.30;99.90
64939;DHT22;51453;47.738;7.420;2022-08-01T07:16:37;24.40;99.90
64939;DHT22;51453;47.738;7.420;2022-08-01T07:19:03;24.40;99.90
64939;DHT22;51453;47.738;7.420;2022-08-01T07:21:28;24.50;99.90
64939;DHT22;51453;47.738;7.420;2022-08-01T07:23:54;24.50;99.90
64939;DHT22;51453;47.738;7.420;2022-08-01T07:26:20;24.50;99.90
64939;DHT22;51453;47.738;7.420;2022-08-01T07:28:45;24.60;99.90
64939;DHT22;51453;47.738;7.420;2022-08-01T07:31:11;24.60;99.90
64939;DHT22;51453;47.738;7.420;2022-08-01T07:33:37;24.70;99.90
64939;DHT22;51453;47.738;7.420;2022-08-01T07:36:02;24.70;99.90
64939;DHT22;51453;47.738;7.420;2022-08-01T07:38:29;24.80;99.90
64939;DHT22;51453;47.738;7.420;2022-08-01T07:40:55;24.80;99.90
64939;DHT22;51453;47.738;7.420;2022-08-01T07:43:21;24.90;99.90
64939;DHT22;51453;47.738;7.420;2022-08-01T07:45:46;24.90;99.90
64939;DHT22;51453;47.738;7.420;2022-08-01T07:48:12;25.10;99.90
64939;DHT22;51453;47.738;7.420;2022-08-01T07:50:38;25.20;99.90
64939;DHT22;51453;47.738;7.420;2022-08-01T07:53:03;25.20;99.90
64939;DHT22;51453;47.738;7.420;2022-08-01T07:55:29;25.30;99.90
64939;DHT22;51453;47.738;7.420;2022-08-01T07:57:55;25.30;99.90
64939;DHT22;51453;47.738;7.420;2022-08-01T08:00:21;25.40;99.90
64939;DHT22;51453;47.738;7.420;2022-08-01T08:02:46;25.50;99.90
64939;DHT22;51453;47.738;7.420;2022-08-01T08:05:12;25.40;99.90
64939;DHT22;51453;47.738;7.420;2022-08-01T08:07:38;25.50;99.90
64939;DHT22;51453;47.738;7.420;2022-08-01T08:10:05;25.50;99.90
64939;DHT22;51453;47.738;7.420;2022-08-01T08:12:31;25.70;99.90
64939;DHT22;51453;47.738;7.420;2022-08-01T08:14:57;25.70;99.90
64939;DHT22;51453;47.738;7.420;2022-08-01T08:17:27;25.70;99.90
64939;DHT22;51453;47.738;7.420;2022-08-01T08:19:53;25.70;99.90
64939;DHT22;51453;47.738;7.420;2022-08-01T08:22:19;25.80;99.90
64939;DHT22;51453;47.738;7.420;2022-08-01T08:24:44;25.90;99.90
64939;DHT22;51453;47.738;7.420;2022-08-01T08:27:10;25.90;99.90
64939;DHT22;51453;47.738;7.420;2022-08-01T08:29:36;26.00;99.90
64939;DHT22;51453;47.738;7.420;2022-08-01T08:32:02;26.00;99.90
64939;DHT22;51453;47.738;7.420;2022-08-01T08:34:28;26.30;99.90
64939;DHT22;51453;47.738;7.420;2022-08-01T08:36:54;26.40;99.90
64939;DHT22;51453;47.738;7.420;2022-08-01T08:39:22;26.40;99.90
64939;DHT22;51453;47.738;7.420;2022-08-01T08:41:48;26.40;99.90
64939;DHT22;51453;47.738;7.420;2022-08-01T08:44:14;26.30;99.90
64939;DHT22;51453;47.738;7.420;2022-08-01T08:46:44;26.40;99.90
64939;DHT22;51453;47.738;7.420;2022-08-01T08:49:12;26.60;99.90
64939;DHT22;51453;47.738;7.420;2022-08-01T08:51:41;26.70;99.90
64939;DHT22;51453;47.738;7.420;2022-08-01T08:54:08;26.80;98.90
64939;DHT22;51453;47.738;7.420;2022-08-01T08:56:37;26.80;99.90
64939;DHT22;51453;47.738;7.420;2022-08-01T08:59:04;27.00;99.50
64939;DHT22;51453;47.738;7.420;2022-08-01T09:01:31;26.90;97.20
64939;DHT22;51453;47.738;7.420;2022-08-01T09:04:04;26.90;96.70
64939;DHT22;51453;47.738;7.420;2022-08-01T09:06:31;26.90;99.40
64939;DHT22;51453;47.738;7.420;2022-08-01T09:08:58;27.00;99.20
64939;DHT22;51453;47.738;7.420;2022-08-01T09:11:24;27.10;98.10
64939;DHT22;51453;47.738;7.420;2022-08-01T09:14:04;27.30;98.80
64939;DHT22;51453;47.738;7.420;2022-08-01T09:16:31;27.50;97.90
64939;DHT22;51453;47.738;7.420;2022-08-01T09:19:15;27.70;99.30
64939;DHT22;51453;47.738;7.420;2022-08-01T09:21:58;27.70;97.10
64939;DHT22;51453;47.738;7.420;2022-08-01T09:24:26;27.60;99.40
64939;DHT22;51453;47.738;7.420;2022-08-01T09:26:53;27.80;97.40
64939;DHT22;51453;47.738;7.420;2022-08-01T09:29:28;27.80;97.90
64939;DHT22;51453;47.738;7.420;2022-08-01T09:31:55;28.00;97.00
64939;DHT22;51453;47.738;7.420;2022-08-01T09:34:29;28.10;96.20
64939;DHT22;51453;47.738;7.420;2022-08-01T09:37:01;28.10;97.00
64939;DHT22;51453;47.738;7.420;2022-08-01T09:39:35;28.10;95.00
64939;DHT22;51453;47.738;7.420;2022-08-01T09:42:19;27.90;96.00
64939;DHT22;51453;47.738;7.420;2022-08-01T09:44:46;28.00;95.40
64939;DHT22;51453;47.738;7.420;2022-08-01T09:47:13;28.20;95.60
64939;DHT22;51453;47.738;7.420;2022-08-01T09:49:40;28.50;93.80
64939;DHT22;51453;47.738;7.420;2022-08-01T09:52:14;28.50;93.90
64939;DHT22;51453;47.738;7.420;2022-08-01T09:54:42;28.50;94.90
64939;DHT22;51453;47.738;7.420;2022-08-01T09:57:16;28.40;94.90
64939;DHT22;51453;47.738;7.420;2022-08-01T09:59:43;28.50;95.30
64939;DHT22;51453;47.738;7.420;2022-08-01T10:02:11;28.50;94.00
64939;DHT22;51453;47.738;7.420;2022-08-01T10:04:46;28.40;95.80
64939;DHT22;51453;47.738;7.420;2022-08-01T10:07:13;28.40;95.80
64939;DHT22;51453;47.738;7.420;2022-08-01T10:09:41;28.40;95.70
64939;DHT22;51453;47.738;7.420;2022-08-01T10:12:08;28.40;93.90
64939;DHT22;51453;47.738;7.420;2022-08-01T10:14:36;28.40;94.70
64939;DHT22;51453;47.738;7.420;2022-08-01T10:17:04;28.40;95.10
64939;DHT22;51453;47.738;7.420;2022-08-01T10:19:32;28.50;93.80
64939;DHT22;51453;47.738;7.420;2022-08-01T10:21:58;28.60;92.70
64939;DHT22;51453;47.738;7.420;2022-08-01T10:24:26;28.60;93.30
64939;DHT22;51453;47.738;7.420;2022-08-01T10:26:56;28.70;92.50
64939;DHT22;51453;47.738;7.420;2022-08-01T10:29:26;28.80;93.40
64939;DHT22;51453;47.738;7.420;2022-08-01T10:31:52;28.60;93.50
64939;DHT22;51453;47.738;7.420;2022-08-01T10:34:19;28.60;95.60
64939;DHT22;51453;47.738;7.420;2022-08-01T10:36:46;28.60;93.50
64939;DHT22;51453;47.738;7.420;2022-08-01T10:39:13;28.90;93.60
64939;DHT22;51453;47.738;7.420;2022-08-01T10:41:39;28.90;92.80
64939;DHT22;51453;47.738;7.420;2022-08-01T10:44:07;28.90;93.10
64939;DHT22;51453;47.738;7.420;2022-08-01T10:46:39;28.90;93.00
64939;DHT22;51453;47.738;7.420;2022-08-01T10:49:11;29.00;90.60
64939;DHT22;51453;47.738;7.420;2022-08-01T10:51:39;29.10;90.30
64939;DHT22;51453;47.738;7.420;2022-08-01T10:54:07;29.20;90.70
64939;DHT22;51453;47.738;7.420;2022-08-01T10:56:40;29.30;91.20
64939;DHT22;51453;47.738;7.420;2022-08-01T10:59:07;29.50;86.70
64939;DHT22;51453;47.738;7.420;2022-08-01T11:01:33;29.60;86.40
64939;DHT22;51453;47.738;7.420;2022-08-01T11:04:14;29.70;86.70
64939;DHT22;51453;47.738;7.420;2022-08-01T11:06:41;29.90;84.60
64939;DHT22;51453;47.738;7.420;2022-08-01T11:11:58;30.40;86.10
64939;DHT22;51453;47.738;7.420;2022-08-01T11:14:24;30.50;84.70
64939;DHT22;51453;47.738;7.420;2022-08-01T11:16:50;30.60;80.70
64939;DHT22;51453;47.738;7.420;2022-08-01T11:19:15;30.60;78.40
64939;DHT22;51453;47.738;7.420;2022-08-01T11:32:54;30.40;79.60
64939;DHT22;51453;47.738;7.420;2022-08-01T11:35:22;30.50;80.90
64939;DHT22;51453;47.738;7.420;2022-08-01T11:37:50;30.60;81.50
64939;DHT22;51453;47.738;7.420;2022-08-01T11:40:26;30.80;76.80
64939;DHT22;51453;47.738;7.420;2022-08-01T11:45:54;31.20;74.90
64939;DHT22;51453;47.738;7.420;2022-08-01T11:48:23;31.30;76.00
64939;DHT22;51453;47.738;7.420;2022-08-01T11:50:56;31.30;74.50
64939;DHT22;51453;47.738;7.420;2022-08-01T11:53:22;31.50;76.80
64939;DHT22;51453;47.738;7.420;2022-08-01T11:55:54;31.80;77.10
64939;DHT22;51453;47.738;7.420;2022-08-01T11:58:24;32.10;74.20
64939;DHT22;51453;47.738;7.420;2022-08-01T12:00:55;32.20;74.80
64939;DHT22;51453;47.738;7.420;2022-08-01T12:03:27;32.00;74.10
64939;DHT22;51453;47.738;7.420;2022-08-01T12:05:55;31.70;74.10
64939;DHT22;51453;47.738;7.420;2022-08-01T12:08:31;31.60;73.70
64939;DHT22;51453;47.738;7.420;2022-08-01T12:11:04;31.60;76.50
64939;DHT22;51453;47.738;7.420;2022-08-01T12:13:42;31.60;73.90
64939;DHT22;51453;47.738;7.420;2022-08-01T12:16:10;31.70;75.00
64939;DHT22;51453;47.738;7.420;2022-08-01T12:18:40;32.10;75.10
64939;DHT22;51453;47.738;7.420;2022-08-01T12:21:06;32.20;74.60
64939;DHT22;51453;47.738;7.420;2022-08-01T12:23:32;32.20;75.20
64939;DHT22;51453;47.738;7.420;2022-08-01T12:25:57;32.20;75.30
64939;DHT22;51453;47.738;7.420;2022-08-01T12:28:23;32.20;76.50
64939;DHT22;51453;47.738;7.420;2022-08-01T12:30:50;32.20;75.70
64939;DHT22;51453;47.738;7.420;2022-08-01T12:33:20;32.50;74.50
64939;DHT22;51453;47.738;7.420;2022-08-01T12:35:47;32.80;74.30
64939;DHT22;51453;47.738;7.420;2022-08-01T12:38:21;32.80;70.70
64939;DHT22;51453;47.738;7.420;2022-08-01T12:40:52;32.60;72.70
64939;DHT22;51453;47.738;7.420;2022-08-01T12:43:22;32.30;70.10
64939;DHT22;51453;47.738;7.420;2022-08-01T12:45:51;32.30;69.60
64939;DHT22;51453;47.738;7.420;2022-08-01T12:48:18;32.40;71.00
64939;DHT22;51453;47.738;7.420;2022-08-01T12:50:47;32.60;73.20
64939;DHT22;51453;47.738;7.420;2022-08-01T12:53:14;32.50;72.20
64939;DHT22;51453;47.738;7.420;2022-08-01T12:55:48;32.60;73.60
64939;DHT22;51453;47.738;7.420;2022-08-01T12:58:16;32.70;70.30
64939;DHT22;51453;47.738;7.420;2022-08-01T13:00:44;32.90;69.80
64939;DHT22;51453;47.738;7.420;2022-08-01T13:03:18;33.00;71.40
64939;DHT22;51453;47.738;7.420;2022-08-01T13:05:53;32.90;68.20
64939;DHT22;51453;47.738;7.420;2022-08-01T13:08:33;32.90;71.30
64939;DHT22;51453;47.738;7.420;2022-08-01T13:11:04;32.90;70.70
64939;DHT22;51453;47.738;7.420;2022-08-01T13:13:46;32.80;69.60
64939;DHT22;51453;47.738;7.420;2022-08-01T13:16:19;32.80;71.30
64939;DHT22;51453;47.738;7.420;2022-08-01T13:18:50;32.80;70.00
64939;DHT22;51453;47.738;7.420;2022-08-01T13:21:18;32.70;67.50
64939;DHT22;51453;47.738;7.420;2022-08-01T13:24:11;32.60;68.30
64939;DHT22;51453;47.738;7.420;2022-08-01T13:29:09;32.60;70.20
64939;DHT22;51453;47.738;7.420;2022-08-01T13:31:37;32.40;69.50
64939;DHT22;51453;47.738;7.420;2022-08-01T13:34:03;32.40;70.80
64939;DHT22;51453;47.738;7.420;2022-08-01T13:36:30;32.20;70.30
64939;DHT22;51453;47.738;7.420;2022-08-01T13:38:57;32.10;70.60
64939;DHT22;51453;47.738;7.420;2022-08-01T13:41:41;32.10;69.10
64939;DHT22;51453;47.738;7.420;2022-08-01T13:44:07;32.10;69.70
64939;DHT22;51453;47.738;7.420;2022-08-01T13:46:34;32.20;69.70
64939;DHT22;51453;47.738;7.420;2022-08-01T13:49:01;32.60;67.20
64939;DHT22;51453;47.738;7.420;2022-08-01T13:51:27;32.70;68.40
64939;DHT22;51453;47.738;7.420;2022-08-01T13:53:53;32.70;68.90
64939;DHT22;51453;47.738;7.420;2022-08-01T13:56:18;32.80;70.50
64939;DHT22;51453;47.738;7.420;2022-08-01T13:58:45;32.60;68.80
64939;DHT22;51453;47.738;7.420;2022-08-01T14:01:12;32.40;68.10
64939;DHT22;51453;47.738;7.420;2022-08-01T14:03:38;32.00;68.50
64939;DHT22;51453;47.738;7.420;2022-08-01T14:06:04;31.60;70.80
64939;DHT22;51453;47.738;7.420;2022-08-01T14:08:30;31.40;71.60
64939;DHT22;51453;47.738;7.420;2022-08-01T14:10:56;31.20;70.20
64939;DHT22;51453;47.738;7.420;2022-08-01T14:13:27;31.10;72.00
64939;DHT22;51453;47.738;7.420;2022-08-01T14:15:53;31.00;73.80
64939;DHT22;51453;47.738;7.420;2022-08-01T14:18:19;31.00;73.50
64939;DHT22;51453;47.738;7.420;2022-08-01T14:20:45;30.80;72.80
64939;DHT22;51453;47.738;7.420;2022-08-01T14:23:10;30.70;75.60
64939;DHT22;51453;47.738;7.420;2022-08-01T14:25:40;30.70;70.90
64939;DHT22;51453;47.738;7.420;2022-08-01T14:28:06;30.80;71.90
64939;DHT22;51453;47.738;7.420;2022-08-01T14:30:33;30.70;71.10
64939;DHT22;51453;47.738;7.420;2022-08-01T14:32:59;30.80;74.80
64939;DHT22;51453;47.738;7.420;2022-08-01T14:35:25;30.90;75.40
64939;DHT22;51453;47.738;7.420;2022-08-01T14:37:51;31.00;74.00
64939;DHT22;51453;47.738;7.420;2022-08-01T14:40:16;31.50;76.50
64939;DHT22;51453;47.738;7.420;2022-08-01T14:42:42;31.90;71.70
64939;DHT22;51453;47.738;7.420;2022-08-01T14:45:13;32.10;68.00
64939;DHT22;51453;47.738;7.420;2022-08-01T14:47:40;32.20;66.00
64939;DHT22;51453;47.738;7.420;2022-08-01T14:50:07;32.30;66.80
64939;DHT22;51453;47.738;7.420;2022-08-01T14:52:34;32.30;68.60
64939;DHT22;51453;47.738;7.420;2022-08-01T14:55:00;32.10;67.90
64939;DHT22;51453;47.738;7.420;2022-08-01T14:57:26;31.90;70.20
64939;DHT22;51453;47.738;7.420;2022-08-01T14:59:52;31.70;67.70
64939;DHT22;51453;47.738;7.420;2022-08-01T15:02:18;31.40;69.00
64939;DHT22;51453;47.738;7.420;2022-08-01T15:04:47;31.10;72.30
64939;DHT22;51453;47.738;7.420;2022-08-01T15:07:14;30.90;71.40
64939;DHT22;51453;47.738;7.420;2022-08-01T15:09:40;30.80;70.20
64939;DHT22;51453;47.738;7.420;2022-08-01T15:12:06;30.80;72.10
64939;DHT22;51453;47.738;7.420;2022-08-01T15:14:32;30.80;70.70
64939;DHT22;51453;47.738;7.420;2022-08-01T15:19:40;30.80;71.80
64939;DHT22;51453;47.738;7.420;2022-08-01T15:22:06;30.90;70.20
64939;DHT22;51453;47.738;7.420;2022-08-01T15:24:32;30.90;71.70
64939;DHT22;51453;47.738;7.420;2022-08-01T15:26:57;30.90;70.00
64939;DHT22;51453;47.738;7.420;2022-08-01T15:29:23;31.10;70.00
64939;DHT22;51453;47.738;7.420;2022-08-01T15:31:49;31.10;72.10
64939;DHT22;51453;47.738;7.420;2022-08-01T15:34:15;30.90;73.70
64939;DHT22;51453;47.738;7.420;2022-08-01T15:36:41;30.80;70.50
64939;DHT22;51453;47.738;7.420;2022-08-01T15:39:10;30.70;75.30
64939;DHT22;51453;47.738;7.420;2022-08-01T15:41:36;30.50;79.70
64939;DHT22;51453;47.738;7.420;2022-08-01T15:44:02;30.40;73.40
64939;DHT22;51453;47.738;7.420;2022-08-01T15:46:28;30.40;69.50
64939;DHT22;51453;47.738;7.420;2022-08-01T15:48:54;30.30;73.30
64939;DHT22;51453;47.738;7.420;2022-08-01T15:51:20;30.10;71.70
64939;DHT22;51453;47.738;7.420;2022-08-01T15:53:45;30.00;73.70
64939;DHT22;51453;47.738;7.420;2022-08-01T15:56:12;29.90;74.20
64939;DHT22;51453;47.738;7.420;2022-08-01T15:58:38;29.70;75.00
64939;DHT22;51453;47.738;7.420;2022-08-01T16:01:04;29.60;74.90
64939;DHT22;51453;47.738;7.420;2022-08-01T16:03:29;29.50;76.30
64939;DHT22;51453;47.738;7.420;2022-08-01T16:05:55;29.40;75.70
64939;DHT22;51453;47.738;7.420;2022-08-01T16:08:21;29.50;74.70
64939;DHT22;51453;47.738;7.420;2022-08-01T16:10:47;29.30;76.80